Aviation Digital Data Service (ADDS)

Output produced by METARs form (0643 UTC 25 July 2014)
found at http://aviationweather.gov/adds/metars/
 
KGSO 250536Z 2506/2606 06006KT P6SM OVC010 
     TEMPO 2506/2510 SCT010 SCT025 BKN050 
     FM251000 05005KT P6SM SCT025 BKN050 
     TEMPO 2510/2514 BKN025 
     FM251400 05005KT P6SM BKN030 BKN050 
     FM251600 06005KT P6SM BKN035 
     FM260200 VRB02KT P6SM SCT020 SCT040